createdAt,value
2019-03-09T00:04:38.095Z,3.57
2019-03-09T00:09:39.683Z,3.53
2019-03-09T00:14:41.266Z,3.10
2019-03-09T00:19:42.801Z,3.80
2019-03-09T00:24:45.272Z,4.40
2019-03-09T00:29:46.868Z,4.10
2019-03-09T00:34:48.484Z,4.53
2019-03-09T00:39:50.520Z,4.63
2019-03-09T00:44:52.116Z,4.97
2019-03-09T00:49:54.066Z,5.57
2019-03-09T00:54:55.667Z,6.03
2019-03-09T00:59:57.542Z,6.03
2019-03-09T01:04:59.120Z,7.10
2019-03-09T01:10:01.054Z,6.67
2019-03-09T01:15:03.673Z,7.27
2019-03-09T01:20:07.426Z,7.50
2019-03-09T01:25:09.278Z,6.60
2019-03-09T01:30:14.952Z,5.70
2019-03-09T01:35:16.564Z,6.47
2019-03-09T01:40:18.157Z,6.50
2019-03-09T01:45:19.803Z,7.63
2019-03-09T01:50:21.396Z,8.10
2019-03-09T01:55:23.030Z,6.30
2019-03-09T02:00:24.625Z,8.27
2019-03-09T02:05:26.218Z,8.30
2019-03-09T02:10:28.123Z,8.20
2019-03-09T02:15:30.198Z,8.67
2019-03-09T02:20:31.825Z,8.73
2019-03-09T02:25:33.446Z,7.70
2019-03-09T02:30:35.066Z,8.07
2019-03-09T02:35:37.496Z,7.83
2019-03-09T02:40:39.184Z,6.87
2019-03-09T02:45:41.288Z,8.47
2019-03-09T02:50:43.618Z,8.20
2019-03-09T02:55:45.195Z,8.53
2019-03-09T03:00:46.735Z,8.13
2019-03-09T03:05:48.410Z,6.40
2019-03-09T03:10:49.962Z,6.37
2019-03-09T03:15:51.610Z,5.80
2019-03-09T03:20:53.239Z,6.10
2019-03-09T03:25:54.789Z,6.07
2019-03-09T03:30:56.436Z,5.67
2019-03-09T03:35:58.054Z,4.43
2019-03-09T03:40:59.649Z,4.50
2019-03-09T03:46:01.337Z,4.43
2019-03-09T03:51:02.969Z,5.03
2019-03-09T03:56:04.530Z,4.20
2019-03-09T04:01:06.118Z,4.43
2019-03-09T04:06:07.724Z,4.07
2019-03-09T04:11:09.795Z,4.27
2019-03-09T04:16:11.357Z,3.60
2019-03-09T04:21:12.982Z,3.77
2019-03-09T04:26:14.962Z,3.30
2019-03-09T04:31:16.599Z,3.20
2019-03-09T04:36:18.580Z,3.60
2019-03-09T04:41:20.177Z,3.30
2019-03-09T04:46:21.997Z,3.30
2019-03-09T04:51:24.229Z,2.93
2019-03-09T04:56:25.889Z,3.60
2019-03-09T05:01:27.628Z,3.73
2019-03-09T05:06:29.221Z,2.90
2019-03-09T05:11:31.610Z,2.93
2019-03-09T05:16:33.230Z,5.50
2019-03-09T05:21:35.538Z,3.13
2019-03-09T05:26:37.171Z,3.93
2019-03-09T05:31:38.852Z,3.63
2019-03-09T05:36:40.823Z,4.20
2019-03-09T05:41:42.439Z,3.20
2019-03-09T05:46:44.053Z,3.47
2019-03-09T05:52:24.745Z,2.73
2019-03-09T05:57:26.283Z,3.07
2019-03-09T06:02:28.307Z,3.00
2019-03-09T06:07:30.125Z,2.83
2019-03-09T06:12:31.759Z,3.00
2019-03-09T06:17:33.434Z,3.50
2019-03-09T06:22:35.447Z,3.40
2019-03-09T06:27:37.063Z,4.92
2019-03-09T06:33:34.909Z,5.83
2019-03-09T06:38:46.929Z,6.30
2019-03-09T06:43:48.523Z,6.70
2019-03-09T06:48:50.137Z,7.70
2019-03-09T06:53:51.779Z,7.47
2019-03-09T06:58:53.439Z,6.17
2019-03-09T07:03:55.055Z,6.97
2019-03-09T07:08:56.696Z,5.87
2019-03-09T07:14:35.908Z,6.53
2019-03-09T07:19:38.295Z,7.80
2019-03-09T07:24:40.087Z,5.50
2019-03-09T07:29:41.774Z,6.20
2019-03-09T07:34:44.359Z,5.80
2019-03-09T07:39:45.992Z,5.37
2019-03-09T07:44:47.576Z,5.10
2019-03-09T07:49:49.165Z,5.90
2019-03-09T07:54:52.139Z,4.40
2019-03-09T07:59:54.518Z,4.73
2019-03-09T08:04:56.169Z,4.30
2019-03-09T08:09:57.876Z,3.80
2019-03-09T08:14:59.578Z,4.27
2019-03-09T08:20:01.197Z,4.60
2019-03-09T08:25:03.980Z,4.07
2019-03-09T08:30:08.972Z,4.20
2019-03-09T08:35:10.731Z,4.27
2019-03-09T08:40:12.629Z,4.90
2019-03-09T08:45:15.491Z,4.37
2019-03-09T08:50:18.522Z,4.47
2019-03-09T08:55:20.094Z,4.10
2019-03-09T09:00:23.958Z,4.27
2019-03-09T09:05:25.519Z,4.47
2019-03-09T09:10:28.070Z,3.70
2019-03-09T09:15:30.588Z,4.03
2019-03-09T09:20:32.185Z,4.17
2019-03-09T09:25:33.760Z,4.63
2019-03-09T09:30:35.722Z,4.57
2019-03-09T09:35:37.343Z,4.77
2019-03-09T09:40:39.346Z,4.20
2019-03-09T09:45:40.935Z,5.37
2019-03-09T09:50:42.532Z,4.73
2019-03-09T09:55:44.180Z,5.60
2019-03-09T10:00:46.200Z,5.53
2019-03-09T10:05:47.920Z,4.80
2019-03-09T10:10:49.469Z,5.53
2019-03-09T10:15:51.157Z,4.90
2019-03-09T10:20:53.162Z,5.00
2019-03-09T10:25:54.739Z,4.13
2019-03-09T10:30:56.436Z,4.60
2019-03-09T10:35:58.526Z,4.40
2019-03-09T10:41:00.270Z,5.27
2019-03-09T10:46:01.934Z,5.13
2019-03-09T10:51:03.588Z,4.80
2019-03-09T10:56:05.236Z,6.47
2019-03-09T11:01:07.290Z,5.67
2019-03-09T11:06:09.046Z,5.10
2019-03-09T11:11:10.634Z,5.53
2019-03-09T11:16:12.245Z,5.60
2019-03-09T11:21:13.939Z,5.47
2019-03-09T11:26:16.211Z,6.07
2019-03-09T11:31:18.263Z,5.63
2019-03-09T11:36:20.259Z,6.70
2019-03-09T11:41:21.844Z,6.47
2019-03-09T11:46:23.456Z,6.70
2019-03-09T11:51:25.358Z,5.80
2019-03-09T11:56:26.930Z,6.47
2019-03-09T12:01:28.525Z,7.63
2019-03-09T12:06:30.221Z,7.33
2019-03-09T12:11:31.920Z,7.50
2019-03-09T12:16:33.502Z,6.70
2019-03-09T12:21:35.451Z,7.17
2019-03-09T12:26:37.095Z,7.77
2019-03-09T12:31:38.729Z,7.07
2019-03-09T12:36:40.342Z,7.33
2019-03-09T12:41:41.974Z,8.03
2019-03-09T12:46:43.613Z,6.53
2019-03-09T12:51:45.205Z,7.73
2019-03-09T12:56:46.853Z,4.80
2019-03-09T13:01:48.571Z,6.07
2019-03-09T13:06:50.245Z,7.93
2019-03-09T13:11:51.978Z,7.93
2019-03-09T13:16:53.560Z,6.27
2019-03-09T13:21:55.263Z,7.17
2019-03-09T13:26:57.002Z,7.10
2019-03-09T13:31:58.688Z,7.60
2019-03-09T13:37:00.282Z,7.53
2019-03-09T13:42:02.021Z,7.50
2019-03-09T13:47:04.402Z,7.77
2019-03-09T13:52:06.418Z,6.40
2019-03-09T13:57:08.711Z,7.40
2019-03-09T14:02:10.457Z,7.07
2019-03-09T14:07:12.433Z,6.93
2019-03-09T14:12:15.738Z,6.27
2019-03-09T14:17:17.469Z,6.33
2019-03-09T14:22:19.527Z,6.53
2019-03-09T14:27:21.124Z,8.70
2019-03-09T14:32:22.746Z,6.80
2019-03-09T14:37:24.429Z,7.50
2019-03-09T14:42:25.966Z,5.23
2019-03-09T14:47:28.134Z,4.60
2019-03-09T14:52:29.727Z,6.37
2019-03-09T14:57:31.772Z,8.43
2019-03-09T15:02:34.854Z,2.63
2019-03-09T15:07:36.449Z,2.07
2019-03-09T15:12:38.065Z,1.70
2019-03-09T15:17:39.698Z,2.00
2019-03-09T15:22:42.047Z,1.50
2019-03-09T15:27:45.708Z,2.60
2019-03-09T15:32:47.341Z,2.53
2019-03-09T15:37:49.251Z,3.20
2019-03-09T15:42:50.926Z,2.50
2019-03-09T15:47:52.968Z,2.83
2019-03-09T15:52:54.623Z,3.57
2019-03-09T15:57:56.501Z,3.77
2019-03-09T16:02:58.534Z,3.20
2019-03-09T16:08:00.192Z,3.27
2019-03-09T16:13:02.163Z,4.53
2019-03-09T16:18:03.887Z,3.30
2019-03-09T16:23:05.991Z,4.43
2019-03-09T16:28:08.656Z,3.93
2019-03-09T16:33:10.236Z,3.37
2019-03-09T16:38:11.822Z,4.37
2019-03-09T16:43:13.719Z,3.13
2019-03-09T16:48:15.369Z,2.80
2019-03-09T16:53:16.981Z,2.90
2019-03-09T16:58:18.670Z,3.40
2019-03-09T17:03:20.372Z,3.40
2019-03-09T17:08:22.082Z,3.60
2019-03-09T17:13:23.754Z,3.37
2019-03-09T17:18:25.415Z,3.17
2019-03-09T17:23:27.037Z,3.93
2019-03-09T17:28:28.658Z,3.43
2019-03-09T17:33:30.350Z,4.43
2019-03-09T17:38:35.997Z,4.50
2019-03-09T17:43:37.803Z,3.77
2019-03-09T17:48:39.533Z,3.77
2019-03-09T17:53:41.202Z,4.30
2019-03-09T17:58:42.912Z,4.57
2019-03-09T18:03:46.193Z,4.77
2019-03-09T18:08:47.932Z,5.70
2019-03-09T18:13:50.971Z,5.37
2019-03-09T18:18:52.758Z,4.77
2019-03-09T18:23:54.474Z,3.30
2019-03-09T18:28:58.684Z,4.17
2019-03-09T18:34:00.740Z,4.57
2019-03-09T18:39:04.598Z,4.30
2019-03-09T18:44:06.198Z,3.10
2019-03-09T18:49:08.464Z,3.03
2019-03-09T19:32:34.691Z,4.30
2019-03-09T19:37:36.661Z,3.57
2019-03-09T19:42:39.385Z,5.45
2019-03-09T19:47:43.049Z,3.93
2019-03-09T19:52:44.964Z,3.73
2019-03-09T19:57:46.560Z,3.50
2019-03-09T20:02:48.200Z,3.80
2019-03-09T20:07:49.849Z,6.13
2019-03-09T20:12:51.444Z,3.67
2019-03-09T20:17:53.620Z,4.17
2019-03-09T20:22:55.436Z,3.53
2019-03-09T20:27:57.147Z,4.80
2019-03-09T20:32:58.799Z,4.00
2019-03-09T20:38:00.532Z,4.00
2019-03-09T20:43:02.195Z,4.27
2019-03-09T20:48:03.797Z,4.27
2019-03-09T20:53:07.424Z,4.03
2019-03-09T20:58:09.110Z,5.27
2019-03-09T21:03:11.587Z,4.37
2019-03-09T21:08:13.563Z,3.67
2019-03-09T21:13:15.221Z,3.93
2019-03-09T21:18:17.410Z,4.40
2019-03-09T21:23:19.181Z,4.13
2019-03-09T21:28:21.353Z,3.77
2019-03-09T21:33:23.357Z,4.27
2019-03-09T21:38:24.921Z,3.70
2019-03-09T21:43:34.916Z,3.53
2019-03-09T21:48:36.871Z,3.13
2019-03-09T21:53:38.477Z,4.30
2019-03-09T21:58:40.644Z,4.73
2019-03-09T22:03:42.335Z,4.57
2019-03-09T22:08:43.973Z,4.87
2019-03-09T22:13:45.753Z,3.80
2019-03-09T22:18:47.489Z,4.70
2019-03-09T22:23:49.510Z,3.67
2019-03-09T22:28:51.156Z,4.43
2019-03-09T22:33:52.748Z,4.57
2019-03-09T22:38:54.698Z,4.70
2019-03-09T22:43:56.534Z,5.77
2019-03-09T22:48:58.157Z,3.90
2019-03-09T22:53:59.882Z,4.90
2019-03-09T22:59:01.459Z,3.67
2019-03-09T23:04:03.388Z,4.03
2019-03-09T23:09:05.279Z,3.93
2019-03-09T23:14:06.913Z,4.70
2019-03-09T23:19:08.500Z,4.53
2019-03-09T23:24:10.244Z,4.57
2019-03-09T23:29:12.245Z,3.77
2019-03-09T23:34:13.883Z,3.97
2019-03-09T23:39:15.442Z,3.67
2019-03-09T23:44:17.082Z,3.50
2019-03-09T23:49:19.016Z,3.80
2019-03-09T23:54:20.966Z,4.13
2019-03-09T23:59:24.055Z,3.67
